Time;durP1;ratioP1;P1;durP2;ratioP2;P2;SDS_P1;SDS_P2;PMS_P1;PMS_P2;Temp;Humidity;BMP_temperature;BMP_pressure;BME280_temperature;BME280_humidity;BME280_pressure;Samples;Min_cycle;Max_cycle;Signal;HPM_P1;HPM_P2
2024/03/23 00:00:32;;;;;;;9.93;3.90;;;7.80;99.90;;;8.70;100.00;97324.31;4998289;28;20969;-76
2024/03/23 00:03:05;;;;;;;8.80;4.60;;;7.80;99.90;;;8.66;100.00;97323.91;5015980;28;20462;-76
2024/03/23 00:05:39;;;;;;;11.50;4.27;;;7.80;99.90;;;8.64;100.00;97323.31;5016005;28;21054;-76
2024/03/23 00:08:13;;;;;;;9.30;4.70;;;7.80;99.90;;;8.57;100.00;97320.63;4998907;28;20477;-76
2024/03/23 00:10:45;;;;;;;7.10;4.60;;;7.70;99.90;;;8.55;100.00;97312.22;4995555;28;21007;-76
2024/03/23 00:13:18;;;;;;;11.30;4.77;;;7.70;99.90;;;8.58;100.00;97303.19;5002503;28;20461;-76
2024/03/23 00:15:50;;;;;;;10.83;5.17;;;7.70;99.90;;;8.54;100.00;97302.78;5002621;28;20469;-76
2024/03/23 00:18:25;;;;;;;5.27;3.90;;;7.60;99.90;;;8.45;100.00;97306.56;5016768;28;20868;-76
2024/03/23 00:21:02;;;;;;;8.70;4.10;;;7.50;99.90;;;8.40;100.00;97308.91;4998166;28;20848;-76
2024/03/23 00:23:35;;;;;;;8.47;4.37;;;7.50;99.90;;;8.31;100.00;97294.44;5015859;28;20461;-76
2024/03/23 00:26:07;;;;;;;11.67;3.93;;;7.40;99.90;;;8.22;100.00;97295.56;5002195;28;20456;-76
2024/03/23 00:28:41;;;;;;;10.20;4.40;;;7.40;99.90;;;8.32;100.00;97295.25;5001521;28;20805;-76
2024/03/23 00:31:13;;;;;;;10.40;4.30;;;7.40;99.90;;;8.35;100.00;97289.66;4995851;28;20629;-76
2024/03/23 00:33:47;;;;;;;21.10;6.80;;;7.50;99.90;;;8.33;100.00;97276.81;4998652;28;20473;-77
2024/03/23 00:36:19;;;;;;;8.37;4.80;;;7.50;99.90;;;8.31;100.00;97268.41;4999054;28;20472;-76
2024/03/23 00:38:55;;;;;;;7.13;4.73;;;7.50;99.90;;;8.24;100.00;97272.72;5002926;28;20474;-76
2024/03/23 00:41:29;;;;;;;11.17;4.00;;;7.40;99.90;;;8.17;100.00;97266.66;5000988;28;20472;-76
2024/03/23 00:44:02;;;;;;;6.47;4.00;;;7.30;99.90;;;8.09;100.00;97269.41;4999786;28;20476;-76
2024/03/23 00:46:30;;;;;;;4.97;3.37;;;7.30;99.90;;;8.04;100.00;97271.81;5000414;28;20967;-76
2024/03/23 00:48:59;;;;;;;13.30;3.87;;;7.20;99.90;;;8.11;100.00;97257.03;5002767;28;20475;-76
2024/03/23 00:51:27;;;;;;;10.53;4.17;;;7.30;99.90;;;8.21;100.00;97262.69;5003059;28;20526;-76
2024/03/23 00:53:55;;;;;;;10.90;4.23;;;7.40;99.90;;;8.28;100.00;97258.38;4998781;28;21087;-76
2024/03/23 00:56:22;;;;;;;7.83;4.10;;;7.40;99.90;;;8.26;100.00;97249.88;5004367;28;20476;-76
2024/03/23 00:58:50;;;;;;;8.43;4.87;;;7.40;99.90;;;8.22;100.00;97258.31;4998550;28;20471;-77
2024/03/23 01:01:18;;;;;;;5.53;4.10;;;7.30;99.90;;;8.14;100.00;97250.63;5003088;28;20519;-76
2024/03/23 01:03:48;;;;;;;8.50;3.53;;;7.30;99.90;;;8.16;100.00;97244.22;5015531;28;21942;-76
2024/03/23 01:06:15;;;;;;;7.50;3.90;;;7.30;99.90;;;8.25;100.00;97244.88;4999167;28;20472;-76
2024/03/23 01:08:43;;;;;;;5.70;3.90;;;7.40;99.90;;;8.27;100.00;97243.69;5003553;28;20853;-76
2024/03/23 01:11:09;;;;;;;9.40;4.80;;;7.40;99.90;;;8.22;100.00;97246.09;5002220;28;20837;-76
2024/03/23 01:13:37;;;;;;;4.27;3.50;;;7.40;99.90;;;8.28;100.00;97234.09;5001811;28;20471;-75
2024/03/23 01:16:04;;;;;;;4.73;3.37;;;7.40;99.90;;;8.28;100.00;97237.53;4999952;28;20901;-76
2024/03/23 01:18:33;;;;;;;8.20;4.10;;;7.40;99.90;;;8.25;100.00;97232.69;5002106;28;20525;-76
2024/03/23 01:21:04;;;;;;;7.43;3.93;;;7.40;99.90;;;8.28;100.00;97232.31;5004825;28;20463;-75
2024/03/23 01:23:32;;;;;;;9.20;4.10;;;7.40;99.90;;;8.34;100.00;97234.16;5005806;28;20470;-76
2024/03/23 01:25:58;;;;;;;7.97;4.60;;;7.50;99.90;;;8.37;100.00;97232.94;5017656;28;20477;-76
2024/03/23 01:28:26;;;;;;;7.77;4.27;;;7.50;99.90;;;8.34;100.00;97226.34;5000666;28;20473;-76
2024/03/23 01:30:52;;;;;;;8.13;3.93;;;7.50;99.90;;;8.37;100.00;97235.56;5003729;28;20539;-76
2024/03/23 01:33:20;;;;;;;6.40;4.07;;;7.50;99.90;;;8.38;100.00;97232.78;5002908;28;20464;-76
2024/03/23 01:35:48;;;;;;;6.30;4.07;;;7.50;99.90;;;8.42;100.00;97222.78;5003240;28;20473;-76
2024/03/23 01:38:16;;;;;;;5.90;3.83;;;7.50;99.90;;;8.46;100.00;97218.78;4997704;28;20482;-77
2024/03/23 01:40:43;;;;;;;8.50;3.83;;;7.50;99.90;;;8.47;100.00;97218.56;5015948;28;21023;-76
2024/03/23 01:43:11;;;;;;;8.23;3.77;;;7.60;99.90;;;8.49;100.00;97207.97;4998639;28;20471;-77
2024/03/23 01:45:38;;;;;;;8.10;4.13;;;7.60;99.90;;;8.49;100.00;97208.78;5002028;28;20493;-77
2024/03/23 01:48:06;;;;;;;7.73;3.57;;;7.60;99.90;;;8.49;100.00;97198.34;4996901;28;20974;-76
2024/03/23 01:50:34;;;;;;;4.77;4.00;;;7.70;99.90;;;8.47;100.00;97189.91;4998325;28;20977;-76
2024/03/23 01:53:06;;;;;;;10.83;4.10;;;7.70;99.90;;;8.50;100.00;97199.16;4998047;28;20550;-77
2024/03/23 01:55:33;;;;;;;11.10;4.13;;;7.60;99.90;;;8.51;100.00;97198.94;4999305;28;20856;-76
2024/03/23 01:58:01;;;;;;;6.83;4.30;;;7.60;99.90;;;8.53;100.00;97199.56;4997506;28;21442;-77
2024/03/23 02:00:28;;;;;;;7.60;3.60;;;7.70;99.90;;;8.54;100.00;97198.56;5002826;28;20465;-76
2024/03/23 02:02:55;;;;;;;7.40;4.20;;;7.70;99.90;;;8.54;100.00;97195.16;5005360;28;20479;-77
2024/03/23 02:05:22;;;;;;;7.03;4.30;;;7.70;99.90;;;8.53;100.00;97189.16;5004343;28;20478;-76
2024/03/23 02:07:52;;;;;;;4.83;3.23;;;7.80;99.90;;;8.51;100.00;97192.94;5001823;28;20469;-76
2024/03/23 02:10:20;;;;;;;4.53;3.20;;;7.70;99.90;;;8.52;100.00;97190.16;5003243;28;20471;-76
2024/03/23 02:12:47;;;;;;;7.90;3.43;;;7.70;99.90;;;8.59;100.00;97172.75;5003207;28;20494;-76
2024/03/23 02:15:14;;;;;;;10.93;3.10;;;7.70;99.90;;;8.59;100.00;97162.31;5021618;28;20469;-75
2024/03/23 02:17:42;;;;;;;5.13;3.60;;;7.80;99.90;;;8.61;100.00;97169.13;5020339;28;20898;-76
2024/03/23 02:20:12;;;;;;;5.00;3.93;;;7.70;99.90;;;8.59;100.00;97146.69;5002537;28;20468;-76
2024/03/23 02:22:40;;;;;;;7.60;3.83;;;7.80;99.90;;;8.61;100.00;97148.28;5005653;28;20460;-76
2024/03/23 02:25:08;;;;;;;7.43;3.73;;;7.70;99.90;;;8.54;100.00;97154.25;5003593;28;20502;-76
2024/03/23 02:27:38;;;;;;;8.00;4.30;;;7.70;99.90;;;8.57;100.00;97133.03;5002477;28;20467;-76
2024/03/23 02:30:07;;;;;;;5.73;3.77;;;7.80;99.90;;;8.52;100.00;97145.84;5007466;28;22104;-76
2024/03/23 02:32:34;;;;;;;5.67;3.73;;;7.80;99.90;;;8.57;100.00;97143.44;5004445;28;20502;-76
2024/03/23 02:35:01;;;;;;;5.17;3.73;;;7.80;99.90;;;8.63;100.00;97146.28;5006351;28;20492;-76
2024/03/23 02:37:28;;;;;;;7.10;3.50;;;7.90;99.90;;;8.56;100.00;97141.06;5005425;28;20485;-76
2024/03/23 02:39:55;;;;;;;6.63;3.90;;;7.90;99.90;;;8.56;100.00;97131.44;5001406;28;20492;-76
2024/03/23 02:42:24;;;;;;;5.83;3.90;;;7.80;99.90;;;8.65;100.00;97139.06;5017453;28;20523;-77
2024/03/23 02:44:50;;;;;;;4.73;3.47;;;7.90;99.90;;;8.65;100.00;97133.84;5006867;28;20474;-76
2024/03/23 02:47:18;;;;;;;6.63;3.43;;;7.90;99.90;;;8.66;100.00;97125.84;5002536;28;20470;-76
2024/03/23 02:49:44;;;;;;;3.83;3.00;;;7.90;99.90;;;8.78;100.00;97128.69;5020185;28;20473;-76
2024/03/23 02:52:12;;;;;;;4.27;3.83;;;7.90;99.90;;;8.78;100.00;97119.03;4999096;28;20496;-76
2024/03/23 02:54:38;;;;;;;9.73;4.33;;;8.00;99.90;;;8.78;100.00;97124.25;5003084;28;20473;-76
2024/03/23 02:57:06;;;;;;;10.43;3.70;;;7.90;99.90;;;8.77;100.00;97122.66;4999975;28;20979;-75
2024/03/23 02:59:34;;;;;;;6.40;3.13;;;8.00;99.90;;;8.77;100.00;97122.66;5007542;28;20469;-76
2024/03/23 03:02:01;;;;;;;6.20;4.20;;;8.00;99.90;;;8.78;100.00;97123.47;5004900;28;20475;-76
2024/03/23 03:04:28;;;;;;;7.03;4.40;;;8.10;99.90;;;8.86;100.00;97124.06;5007667;28;20460;-76
2024/03/23 03:06:55;;;;;;;14.00;4.60;;;8.10;99.90;;;8.86;100.00;97120.66;5019482;28;20462;-76
2024/03/23 03:09:22;;;;;;;6.10;4.20;;;8.00;99.90;;;8.90;100.00;97112.25;5005828;28;20468;-76
2024/03/23 03:11:50;;;;;;;6.90;5.17;;;8.10;99.90;;;8.96;100.00;97118.44;5019269;28;20717;-76
2024/03/23 03:14:16;;;;;;;8.77;4.90;;;8.10;99.90;;;9.01;100.00;97119.47;5004291;28;20480;-76
2024/03/23 03:16:45;;;;;;;8.47;4.80;;;8.20;99.90;;;9.07;100.00;97129.09;5002743;28;20484;-76
2024/03/23 03:19:12;;;;;;;10.37;5.97;;;8.20;99.90;;;9.09;100.00;97131.53;5003785;28;20838;-76
2024/03/23 03:21:39;;;;;;;15.73;6.10;;;8.20;99.90;;;9.13;100.00;97127.50;5006059;28;20456;-76
2024/03/23 03:24:07;;;;;;;16.23;6.13;;;8.30;99.90;;;9.22;100.00;97138.53;5002491;28;20480;-76
2024/03/23 03:26:34;;;;;;;16.57;9.87;;;8.40;99.90;;;9.30;100.00;97146.19;4999206;28;20465;-77
2024/03/23 03:29:01;;;;;;;14.60;7.37;;;8.60;99.90;;;9.38;100.00;97159.81;5005644;28;20464;-76
2024/03/23 03:31:29;;;;;;;13.93;7.60;;;8.60;99.90;;;9.46;100.00;97175.28;5005479;28;20501;-76
2024/03/23 03:33:57;;;;;;;8.90;5.80;;;8.80;99.90;;;9.50;100.00;97173.88;5017790;28;20548;-76
2024/03/23 03:36:25;;;;;;;6.20;4.20;;;8.90;99.90;;;9.43;100.00;97180.09;5003599;28;20466;-76
2024/03/23 03:38:51;;;;;;;4.30;2.63;;;8.80;99.90;;;9.40;100.00;97203.97;5000840;28;20480;-76
2024/03/23 03:41:19;;;;;;;3.73;2.60;;;8.80;99.90;;;9.25;100.00;97209.38;5005833;28;20961;-76
2024/03/23 03:43:46;;;;;;;4.73;2.60;;;8.70;99.90;;;9.14;100.00;97211.75;5005880;28;20470;-76
2024/03/23 03:46:13;;;;;;;2.27;1.63;;;8.70;99.90;;;9.08;100.00;97223.78;5016818;28;20472;-76
2024/03/23 03:48:40;;;;;;;2.43;1.57;;;8.60;99.90;;;8.98;100.00;97218.16;4999599;28;20492;-77
2024/03/23 03:51:09;;;;;;;1.50;1.40;;;8.40;99.90;;;8.87;100.00;97227.34;5006599;28;20488;-76
2024/03/23 03:53:36;;;;;;;1.30;1.10;;;8.30;99.90;;;8.83;100.00;97230.53;5004742;28;20520;-76
2024/03/23 03:56:04;;;;;;;1.30;0.93;;;8.20;99.90;;;8.74;100.00;97236.94;5015557;28;20464;-76
2024/03/23 03:58:30;;;;;;;1.20;1.10;;;8.20;99.90;;;8.70;100.00;97243.53;5000548;28;20471;-76
2024/03/23 04:00:58;;;;;;;1.10;0.90;;;8.10;99.90;;;8.73;100.00;97250.94;5002858;28;20474;-75
2024/03/23 04:03:25;;;;;;;1.17;1.07;;;8.10;99.90;;;8.68;100.00;97269.78;5005542;28;20458;-76
2024/03/23 04:05:53;;;;;;;8.83;4.70;;;8.00;99.90;;;8.63;100.00;97255.72;5002361;28;20468;-81
2024/03/23 04:08:22;;;;;;;6.00;3.50;;;8.10;99.90;;;8.65;100.00;97259.75;5003297;28;20534;-76
2024/03/23 04:10:49;;;;;;;1.17;1.07;;;8.00;99.90;;;8.57;100.00;97252.88;5003022;28;21415;-77
2024/03/23 04:13:16;;;;;;;1.30;1.03;;;8.00;99.90;;;8.56;100.00;97250.50;4994437;28;20511;-76
2024/03/23 04:15:44;;;;;;;1.20;1.07;;;8.00;99.90;;;8.63;100.00;97255.72;5014298;28;20512;-77
2024/03/23 04:18:10;;;;;;;1.30;1.07;;;7.90;99.90;;;8.65;100.00;97259.75;4997847;28;20478;-78
2024/03/23 04:20:38;;;;;;;0.80;0.80;;;7.90;99.90;;;8.63;100.00;97263.53;5002386;28;20472;-77
2024/03/23 04:23:05;;;;;;;1.03;0.90;;;7.90;99.90;;;8.67;100.00;97262.16;5001332;28;20464;-78
2024/03/23 04:25:34;;;;;;;1.20;0.90;;;7.90;99.90;;;8.72;100.00;97270.19;5003032;28;20460;-78
2024/03/23 04:28:00;;;;;;;0.90;0.80;;;8.00;99.90;;;8.77;100.00;97273.03;5007000;28;20482;-78
2024/03/23 04:30:29;;;;;;;1.57;1.00;;;8.00;99.90;;;8.74;100.00;97278.63;5004708;28;20876;-78
2024/03/23 04:32:56;;;;;;;0.80;0.80;;;8.00;99.90;;;8.70;100.00;97283.44;5019542;28;20498;-77
2024/03/23 04:35:25;;;;;;;1.10;0.90;;;8.00;99.90;;;8.68;100.00;97292.44;5003331;28;20469;-79
2024/03/23 04:37:53;;;;;;;1.10;0.90;;;8.00;99.90;;;8.46;100.00;97287.31;5001825;28;20482;-77
2024/03/23 04:40:24;;;;;;;0.97;0.87;;;7.90;99.90;;;8.28;100.00;97289.63;4999144;28;20991;-77
2024/03/23 04:42:53;;;;;;;0.90;0.80;;;7.90;99.90;;;8.29;100.00;97291.22;5016370;28;20477;-77
2024/03/23 04:45:20;;;;;;;0.97;0.87;;;7.80;99.90;;;8.16;100.00;97298.91;4997291;28;20861;-78
2024/03/23 04:47:48;;;;;;;0.80;0.70;;;7.70;99.90;;;8.28;100.00;97320.88;4998919;28;20459;-78
2024/03/23 04:50:16;;;;;;;0.90;0.70;;;7.60;99.90;;;8.31;100.00;97315.28;4998512;28;20458;-78
2024/03/23 04:52:43;;;;;;;1.10;0.77;;;7.70;99.90;;;8.27;100.00;97314.00;5014781;28;20502;-77
2024/03/23 04:55:11;;;;;;;0.80;0.80;;;7.70;99.90;;;8.19;100.00;97308.94;5003183;28;20473;-78
2024/03/23 04:57:38;;;;;;;0.80;0.80;;;7.60;99.90;;;8.10;100.00;97303.09;5015875;28;20489;-78
2024/03/23 05:00:16;;;;;;;0.80;0.70;;;7.40;99.90;;;8.16;100.00;97311.94;4998586;28;21153;-77
2024/03/23 05:02:45;;;;;;;2.27;1.43;;;7.30;99.90;;;8.09;100.00;97308.47;5005563;28;20474;-77
2024/03/23 05:05:13;;;;;;;8.10;1.07;;;7.50;99.90;;;8.17;100.00;97323.16;4998351;28;21224;-77
2024/03/23 05:07:41;;;;;;;0.97;0.80;;;7.60;99.90;;;8.09;100.00;97330.09;5005772;28;20470;-78
2024/03/23 05:10:11;;;;;;;1.47;0.87;;;7.50;99.90;;;8.05;100.00;97323.66;5005309;28;20482;-77
2024/03/23 05:12:37;;;;;;;1.30;0.80;;;7.50;99.90;;;8.09;100.00;97330.09;5014620;28;20503;-77
2024/03/23 05:15:07;;;;;;;0.80;0.80;;;7.50;99.90;;;8.11;100.00;97345.56;4997293;28;20504;-77
2024/03/23 05:17:34;;;;;;;0.80;0.70;;;7.50;99.90;;;8.03;100.00;97346.50;5002012;28;20530;-77
2024/03/23 05:20:02;;;;;;;0.83;0.80;;;7.50;99.90;;;7.96;100.00;97347.44;5005132;28;20859;-77
2024/03/23 05:22:29;;;;;;;0.80;0.80;;;7.40;99.90;;;7.82;100.00;97345.69;5003079;28;20468;-78
2024/03/23 05:24:56;;;;;;;0.80;0.70;;;7.30;99.90;;;7.77;100.00;97358.47;5002607;28;20471;-76
2024/03/23 05:27:23;;;;;;;1.77;1.00;;;7.30;99.90;;;7.77;100.00;97358.47;5005149;28;20462;-77
2024/03/23 05:29:50;;;;;;;0.97;0.80;;;7.30;99.90;;;7.71;100.00;97348.78;5000533;28;20482;-78
2024/03/23 05:32:18;;;;;;;1.27;0.83;;;7.30;99.90;;;7.83;100.00;97355.13;4999461;28;20495;-78
2024/03/23 05:34:46;;;;;;;1.37;1.00;;;7.30;99.90;;;7.80;100.00;97352.91;5000519;28;20852;-78
2024/03/23 05:37:13;;;;;;;17.87;7.30;;;7.30;99.90;;;7.84;100.00;97359.34;4992994;28;20598;-78
2024/03/23 05:39:40;;;;;;;2.10;1.43;;;7.20;99.90;;;7.87;100.00;97364.19;4994915;28;20478;-78
2024/03/23 05:42:08;;;;;;;1.03;0.93;;;7.30;99.90;;;7.91;100.00;97357.63;5011441;28;20490;-78
2024/03/23 05:44:35;;;;;;;2.90;0.80;;;7.30;99.90;;;7.96;100.00;97368.25;4999284;28;20460;-77
2024/03/23 05:47:02;;;;;;;0.97;0.80;;;7.30;99.90;;;7.88;100.00;97376.22;5005285;28;20519;-77
2024/03/23 05:49:31;;;;;;;6.00;0.87;;;7.20;99.90;;;7.83;100.00;97394.16;5002642;28;20464;-77
2024/03/23 05:51:58;;;;;;;1.93;1.00;;;7.10;99.90;;;7.90;100.00;97393.25;5002135;28;20555;-77
2024/03/23 05:54:25;;;;;;;1.47;1.00;;;7.10;99.90;;;7.80;100.00;97394.53;5000897;28;20463;-77
2024/03/23 05:56:55;;;;;;;1.67;0.90;;;7.10;99.90;;;7.72;100.00;97412.88;5000350;28;20521;-78
2024/03/23 05:59:23;;;;;;;1.50;1.10;;;7.00;99.90;;;7.57;100.00;97426.72;4999383;28;20472;-77
2024/03/23 06:01:49;;;;;;;1.10;1.00;;;6.80;99.90;;;7.61;100.00;97427.16;5003592;28;20539;-77
2024/03/23 06:04:17;;;;;;;2.43;0.97;;;6.90;99.90;;;7.70;100.00;97439.09;5000243;28;20478;-77
2024/03/23 06:06:45;;;;;;;7.17;1.10;;;7.00;99.90;;;7.65;100.00;97432.81;5016381;28;20492;-77
2024/03/23 06:09:13;;;;;;;2.37;1.50;;;7.00;99.90;;;7.74;100.00;97426.50;5003329;28;20473;-77
2024/03/23 06:11:40;;;;;;;1.53;1.13;;;7.10;99.90;;;7.74;100.00;97431.72;5001599;28;20552;-77
2024/03/23 06:14:07;;;;;;;4.93;1.80;;;7.10;99.90;;;7.64;100.00;97425.97;4998732;28;20474;-77
2024/03/23 06:16:34;;;;;;;3.80;1.60;;;6.90;99.90;;;7.64;100.00;97434.59;5001514;28;20557;-78
2024/03/23 06:19:04;;;;;;;5.57;1.70;;;7.00;99.90;;;7.64;100.00;97434.59;5001268;28;20466;-77
2024/03/23 06:21:31;;;;;;;5.73;1.73;;;7.00;99.90;;;7.67;100.00;97436.03;5003923;28;20820;-77
2024/03/23 06:24:00;;;;;;;2.40;1.67;;;7.10;99.90;;;7.62;100.00;97436.59;5002362;28;20463;-77
2024/03/23 06:26:26;;;;;;;2.97;1.33;;;7.10;99.90;;;7.72;100.00;97441.47;4998949;28;20835;-77
2024/03/23 06:28:55;;;;;;;4.57;2.50;;;7.10;99.90;;;7.60;100.00;97449.75;5003977;28;20463;-78
2024/03/23 06:31:22;;;;;;;3.30;2.00;;;7.10;99.90;;;7.62;100.00;97465.19;5006160;28;21072;-77
2024/03/23 06:33:50;;;;;;;1.70;1.20;;;7.10;99.90;;;7.59;100.00;97475.97;5005762;28;20499;-77
2024/03/23 06:36:17;;;;;;;5.80;1.73;;;7.00;99.90;;;7.67;100.00;97488.09;5017562;28;20470;-78
2024/03/23 06:38:47;;;;;;;12.40;1.43;;;7.10;99.90;;;7.67;100.00;97493.28;5004447;28;20506;-77
2024/03/23 06:41:15;;;;;;;6.20;2.23;;;7.10;99.90;;;7.69;100.00;97504.31;5006972;28;20470;-77
2024/03/23 06:43:44;;;;;;;9.43;2.40;;;7.10;99.90;;;7.59;100.00;97507.19;5002888;28;20989;-77
2024/03/23 06:46:11;;;;;;;4.47;1.70;;;7.10;99.90;;;7.65;100.00;97516.88;5006049;28;20462;-77
2024/03/23 06:48:39;;;;;;;4.73;1.47;;;7.10;99.90;;;7.51;100.00;97523.72;5003533;28;20640;-77
2024/03/23 06:51:06;;;;;;;9.23;2.77;;;7.10;99.90;;;7.44;100.00;97522.00;5000476;28;20486;-77
2024/03/23 06:53:34;;;;;;;4.43;1.93;;;6.90;99.90;;;7.40;100.00;97529.34;4999134;28;20490;-77
2024/03/23 06:56:01;;;;;;;6.97;2.27;;;6.80;99.90;;;7.37;100.00;97534.91;5003790;28;20479;-77
2024/03/23 06:58:30;;;;;;;6.57;2.63;;;6.70;99.90;;;7.44;100.00;97535.81;5001322;28;20462;-77
2024/03/23 07:00:56;;;;;;;10.03;2.07;;;6.80;99.90;;;7.43;100.00;97544.59;5001632;28;20483;-77
2024/03/23 07:03:25;;;;;;;11.93;2.43;;;6.90;99.90;;;7.46;100.00;97549.44;5007460;28;20881;-77
2024/03/23 07:05:52;;;;;;;3.60;2.57;;;6.90;99.90;;;7.40;100.00;97546.75;5005132;28;20473;-77
2024/03/23 07:08:22;;;;;;;5.77;2.90;;;6.80;99.90;;;7.40;100.00;97554.56;5008205;28;20501;-77
2024/03/23 07:10:48;;;;;;;7.67;3.33;;;6.70;99.90;;;7.34;100.00;97566.50;5002821;28;20467;-77
2024/03/23 07:13:17;;;;;;;9.27;2.17;;;6.80;99.90;;;7.39;100.00;97558.94;5005645;28;21158;-77
2024/03/23 07:15:52;;;;;;;6.70;2.30;;;6.70;99.90;;;7.46;100.00;97569.47;5003270;28;20488;-77
2024/03/23 07:18:19;;;;;;;7.00;2.10;;;6.90;99.90;;;7.52;100.00;97571.34;5008631;28;20465;-77
2024/03/23 07:20:54;;;;;;;5.53;4.07;;;6.90;99.90;;;7.53;100.00;97572.97;5005043;28;20475;-77
2024/03/23 07:23:22;;;;;;;5.83;2.40;;;6.80;99.90;;;7.66;100.00;97580.94;5001377;28;20474;-77
2024/03/23 07:25:57;;;;;;;5.60;2.40;;;7.00;99.90;;;7.72;100.00;97579.41;5003593;28;20474;-77
2024/03/23 07:28:25;;;;;;;7.57;2.73;;;7.10;99.90;;;7.76;100.00;97585.88;5009622;28;20455;-77
2024/03/23 07:31:04;;;;;;;3.83;2.53;;;7.00;99.90;;;7.76;100.00;97583.25;5004942;28;20533;-77
2024/03/23 07:33:33;;;;;;;10.83;2.90;;;7.00;99.90;;;7.68;100.00;97594.56;5008593;28;21316;-77
2024/03/23 07:36:00;;;;;;;11.40;2.50;;;7.00;99.90;;;7.60;100.00;97599.88;5008190;28;20474;-77
2024/03/23 07:38:29;;;;;;;6.60;2.67;;;6.90;99.90;;;7.63;100.00;97607.31;5009193;28;20895;-77
2024/03/23 07:41:05;;;;;;;9.63;2.80;;;7.00;99.90;;;7.74;100.00;97614.66;5003490;28;20470;-76
2024/03/23 07:43:36;;;;;;;8.17;3.00;;;7.10;99.90;;;7.51;100.00;97630.38;5006906;28;20475;-76
2024/03/23 07:46:04;;;;;;;9.03;2.60;;;6.90;99.90;;;7.61;100.00;97619.69;5006650;28;20485;-76
2024/03/23 07:48:33;;;;;;;13.17;3.43;;;7.10;99.90;;;7.63;100.00;97612.53;5004469;28;20476;-76
2024/03/23 07:51:02;;;;;;;10.50;3.23;;;7.20;99.90;;;7.64;100.00;97602.91;5008348;28;20468;-77
2024/03/23 07:53:30;;;;;;;14.17;2.70;;;7.20;99.90;;;7.76;100.00;97607.50;5006151;28;20511;-78
2024/03/23 07:56:02;;;;;;;13.00;3.20;;;7.30;99.90;;;7.66;100.00;97603.56;5002243;28;20470;-76
2024/03/23 07:58:30;;;;;;;11.00;2.90;;;7.10;99.90;;;7.62;100.00;97616.09;5020368;28;20474;-77
2024/03/23 08:01:05;;;;;;;5.13;3.33;;;7.20;99.90;;;7.60;100.00;97624.06;5005176;28;21076;-77
2024/03/23 08:03:35;;;;;;;10.83;4.10;;;7.00;99.90;;;7.66;100.00;97621.75;5002065;28;20489;-77
2024/03/23 08:06:15;;;;;;;5.67;2.60;;;7.10;99.90;;;7.75;100.00;97621.50;5005274;28;20959;-77
2024/03/23 08:08:43;;;;;;;8.83;2.67;;;7.20;99.90;;;7.67;100.00;97624.16;4999062;28;20471;-77
2024/03/23 08:11:11;;;;;;;7.30;3.53;;;7.10;99.90;;;7.71;100.00;97629.81;5005138;28;20478;-77
2024/03/23 08:13:40;;;;;;;8.07;3.97;;;7.10;99.90;;;7.67;100.00;97628.59;4998871;28;21006;-77
2024/03/23 08:16:09;;;;;;;7.87;3.53;;;7.00;99.90;;;7.70;100.00;97629.03;5000698;28;20471;-78
2024/03/23 08:18:36;;;;;;;10.17;3.33;;;7.00;99.90;;;7.76;100.00;97627.50;5003140;28;20857;-77
2024/03/23 08:21:06;;;;;;;7.10;2.93;;;7.10;99.90;;;7.81;100.00;97635.59;5003393;28;20550;-77
2024/03/23 08:23:35;;;;;;;5.70;3.20;;;7.10;99.90;;;7.81;100.00;97625.19;5006732;28;20471;-77
2024/03/23 08:26:05;;;;;;;13.17;4.60;;;7.20;99.90;;;7.91;100.00;97623.13;5021084;28;20826;-77
2024/03/23 08:28:32;;;;;;;12.70;4.10;;;7.30;99.90;;;7.91;100.00;97641.34;5005109;28;20467;-78
2024/03/23 08:31:03;;;;;;;12.00;4.10;;;7.40;99.90;;;7.81;100.00;97641.59;5023607;28;20527;-76
2024/03/23 08:33:32;;;;;;;14.40;4.10;;;7.20;99.90;;;7.77;100.00;97642.97;5008736;28;20882;-78
2024/03/23 08:36:01;;;;;;;18.17;4.00;;;7.20;99.90;;;7.77;100.00;97640.34;5007953;28;20470;-78
2024/03/23 08:38:29;;;;;;;7.47;3.83;;;7.10;99.90;;;7.83;100.00;97644.03;5006541;28;21037;-77
2024/03/23 08:41:02;;;;;;;8.07;2.93;;;7.30;99.90;;;7.93;100.00;97634.16;5009444;28;20473;-76
2024/03/23 08:43:30;;;;;;;9.53;3.20;;;7.40;99.90;;;7.93;100.00;97628.94;5007483;28;20485;-77
2024/03/23 08:46:05;;;;;;;10.00;2.97;;;7.40;99.90;;;7.96;100.00;97629.38;5004358;28;20921;-77
2024/03/23 08:48:36;;;;;;;9.63;3.40;;;7.30;99.90;;;7.93;100.00;97639.34;5004025;28;20461;-78
2024/03/23 08:51:04;;;;;;;12.33;2.67;;;7.20;99.90;;;7.95;100.00;97638.16;5002870;28;20974;-77
2024/03/23 08:53:32;;;;;;;6.90;2.70;;;7.30;99.90;;;7.92;100.00;97630.72;5006938;28;20533;-77
2024/03/23 08:56:01;;;;;;;12.73;3.47;;;7.20;99.90;;;7.93;100.00;97634.97;5003126;28;20477;-77
2024/03/23 08:58:29;;;;;;;7.00;2.83;;;7.30;99.90;;;8.08;100.00;97630.56;5016615;28;20465;-77
2024/03/23 09:01:05;;;;;;;8.30;2.83;;;7.40;99.90;;;8.19;100.00;97634.47;5005736;28;20500;-77
2024/03/23 09:03:34;;;;;;;10.23;3.10;;;7.50;99.90;;;8.20;100.00;97638.69;5017608;28;20475;-77
2024/03/23 09:06:03;;;;;;;5.13;2.50;;;7.50;99.90;;;8.20;100.00;97651.72;4996836;28;20472;-77
2024/03/23 09:08:29;;;;;;;3.90;2.10;;;7.50;99.90;;;8.26;100.00;97648.38;5000388;28;20463;-77
2024/03/23 09:10:57;;;;;;;14.93;3.30;;;7.60;99.90;;;8.34;100.00;97643.09;5001866;28;20468;-77
2024/03/23 09:13:23;;;;;;;8.67;3.17;;;7.70;99.90;;;8.41;100.00;97651.00;5004765;28;20881;-77
2024/03/23 09:15:56;;;;;;;9.00;3.03;;;7.70;99.90;;;8.50;100.00;97661.13;5005336;28;20488;-77
2024/03/23 09:18:22;;;;;;;11.83;2.60;;;7.80;99.90;;;8.61;100.00;97653.84;5005094;28;20545;-77
2024/03/23 09:20:53;;;;;;;6.80;2.10;;;8.00;99.90;;;8.67;100.00;97668.72;5005012;28;20479;-77
2024/03/23 09:23:20;;;;;;;14.10;2.40;;;8.20;99.90;;;8.74;100.00;97653.97;5004362;28;20534;-77
2024/03/23 09:25:47;;;;;;;3.80;2.30;;;8.20;99.90;;;8.68;100.00;97660.72;5002719;28;20479;-78
2024/03/23 09:28:14;;;;;;;6.33;2.23;;;8.10;99.90;;;8.67;100.00;97659.13;5012473;28;20477;-77
2024/03/23 09:30:43;;;;;;;9.23;2.47;;;7.90;99.90;;;8.79;100.00;97652.41;5001343;28;20476;-77
2024/03/23 09:33:10;;;;;;;7.10;2.80;;;8.10;99.90;;;8.79;100.00;97649.00;5006398;28;20560;-77
2024/03/23 09:35:39;;;;;;;8.80;2.50;;;8.10;99.90;;;8.83;100.00;97637.22;5001270;28;20469;-77
2024/03/23 09:38:07;;;;;;;9.13;2.90;;;8.30;99.90;;;8.81;100.00;97660.88;5004675;28;20462;-78
2024/03/23 09:40:35;;;;;;;13.33;3.80;;;8.20;99.90;;;8.89;100.00;97646.88;5003286;28;20477;-79
2024/03/23 09:43:01;;;;;;;8.60;2.90;;;8.20;99.90;;;8.91;100.00;97652.75;5017592;28;20535;-77
2024/03/23 09:45:30;;;;;;;5.40;2.47;;;8.20;99.90;;;8.86;100.00;97650.69;5006181;28;20852;-78
2024/03/23 09:47:57;;;;;;;13.33;3.33;;;8.30;99.90;;;8.93;100.00;97643.72;5020514;28;20476;-78
2024/03/23 09:50:25;;;;;;;8.47;2.93;;;8.40;99.90;;;8.94;100.00;97668.00;5001451;28;20482;-78
2024/03/23 09:52:51;;;;;;;10.57;3.03;;;8.40;99.90;;;8.95;100.00;97646.16;5003472;28;20557;-78
2024/03/23 09:55:20;;;;;;;7.80;3.10;;;8.40;99.90;;;9.07;100.00;97647.25;5000887;28;20476;-78
2024/03/23 09:57:47;;;;;;;9.27;2.90;;;8.40;99.90;;;9.19;100.00;97643.16;5017849;28;20553;-78
2024/03/23 10:00:16;;;;;;;7.70;2.77;;;8.60;99.90;;;9.21;100.00;97627.31;4997919;28;20863;-78
2024/03/23 10:02:43;;;;;;;6.40;2.50;;;8.60;99.90;;;9.34;100.00;97637.84;4998704;28;20996;-77
2024/03/23 10:05:22;;;;;;;6.53;2.20;;;8.70;99.90;;;9.49;100.00;97631.56;5000225;28;20477;-78
2024/03/23 10:07:49;;;;;;;7.90;2.00;;;8.90;99.90;;;9.55;100.00;97633.41;5004971;28;20465;-77
2024/03/23 10:10:18;;;;;;;6.67;1.93;;;8.90;99.90;;;9.48;100.00;97642.16;5000851;28;20745;-77
2024/03/23 10:12:50;;;;;;;4.97;2.63;;;8.80;99.90;;;9.48;100.00;97642.16;5003385;28;20496;-77
2024/03/23 10:15:21;;;;;;;4.60;2.00;;;8.80;99.90;;;9.49;100.00;97626.34;5002010;28;20850;-78
2024/03/23 10:17:48;;;;;;;8.00;2.67;;;8.90;99.90;;;9.49;100.00;97628.94;5002826;28;20481;-77
2024/03/23 10:20:22;;;;;;;5.37;2.30;;;9.00;99.90;;;9.51;100.00;97616.50;5004072;28;20470;-78
2024/03/23 10:22:49;;;;;;;3.27;2.10;;;9.00;99.90;;;9.58;100.00;97613.94;5007872;28;20972;-78
2024/03/23 10:25:17;;;;;;;6.40;2.27;;;8.90;99.90;;;9.56;100.00;97624.56;5003569;28;21134;-77
2024/03/23 10:27:44;;;;;;;10.40;2.30;;;8.90;99.90;;;9.64;100.00;97594.09;5005653;28;20481;-77
2024/03/23 10:30:15;;;;;;;4.73;1.90;;;9.00;99.90;;;9.56;100.00;97619.34;5004782;28;20470;-78